createdAt,value
2018-01-12T00:00:29.826Z,101329.45
2018-01-12T00:01:32.288Z,101327.83
2018-01-12T00:02:34.748Z,101327.27
2018-01-12T00:03:37.210Z,101325.64
2018-01-12T00:04:39.680Z,101327.58
2018-01-12T00:05:42.166Z,101328.95
2018-01-12T00:06:44.640Z,101326.77
2018-01-12T00:07:47.118Z,101327.88
2018-01-12T00:08:49.588Z,101331.60
2018-01-12T00:09:52.046Z,101331.91
2018-01-12T00:10:54.521Z,101326.16
2018-01-12T00:11:56.974Z,101333.28
2018-01-12T00:12:59.444Z,101332.06
2018-01-12T00:14:01.920Z,101334.56
2018-01-12T00:15:04.402Z,101336.34
2018-01-12T00:16:06.862Z,101336.09
2018-01-12T00:17:09.336Z,101347.75
2018-01-12T00:18:11.821Z,101338.43
2018-01-12T00:19:14.282Z,101340.92
2018-01-12T00:20:16.738Z,101339.11
2018-01-12T00:21:19.216Z,101343.39
2018-01-12T00:22:21.689Z,101348.89
2018-01-12T00:23:24.160Z,101345.58
2018-01-12T00:24:26.632Z,101345.73
2018-01-12T00:25:29.109Z,101348.64
2018-01-12T00:26:31.573Z,101345.48
2018-01-12T00:27:34.049Z,101344.11
2018-01-12T00:28:36.510Z,101343.04
2018-01-12T00:29:38.984Z,101342.23
2018-01-12T00:30:41.442Z,101345.94
2018-01-12T00:31:43.914Z,101344.16
2018-01-12T00:32:46.393Z,101345.69
2018-01-12T00:33:48.870Z,101347.06
2018-01-12T00:34:51.329Z,101351.19
2018-01-12T00:35:53.823Z,101345.69
2018-01-12T00:36:56.286Z,101342.53
2018-01-12T00:37:58.764Z,101348.59
2018-01-12T00:39:01.238Z,101349.71
2018-01-12T00:40:03.705Z,101357.41
2018-01-12T00:41:06.170Z,101354.81
2018-01-12T00:42:08.641Z,101361.27
2018-01-12T00:43:11.117Z,101353.59
2018-01-12T00:44:13.578Z,101353.17
2018-01-12T00:45:16.042Z,101351.55
2018-01-12T00:46:18.524Z,101347.42
2018-01-12T00:47:20.986Z,101347.98
2018-01-12T00:48:23.456Z,101345.80
2018-01-12T00:49:25.915Z,101342.79
2018-01-12T00:50:28.379Z,101345.39
2018-01-12T00:51:30.842Z,101341.00
2018-01-12T00:52:33.321Z,101345.54
2018-01-12T00:53:35.796Z,101348.14
2018-01-12T00:54:38.250Z,101349.26
2018-01-12T00:55:40.706Z,101353.79
2018-01-12T00:56:43.162Z,101347.62
2018-01-12T00:57:45.640Z,101347.38
2018-01-12T00:58:48.098Z,101347.38
2018-01-12T00:59:50.568Z,101350.69
2018-01-12T01:00:53.030Z,101345.05
2018-01-12T01:01:55.496Z,101351.67
2018-01-12T01:02:57.964Z,101350.04
2018-01-12T01:04:00.432Z,101346.06
2018-01-12T01:05:02.913Z,101348.97
2018-01-12T01:06:05.388Z,101353.91
2018-01-12T01:07:07.850Z,101355.84
2018-01-12T01:08:10.302Z,101354.47
2018-01-12T01:09:12.757Z,101355.59
2018-01-12T01:10:15.244Z,101351.62
2018-01-12T01:11:17.697Z,101358.49
2018-01-12T01:12:20.173Z,101349.02
2018-01-12T01:13:22.644Z,101359.77
2018-01-12T01:14:25.110Z,101357.58
2018-01-12T01:15:27.586Z,101360.07
2018-01-12T01:16:30.038Z,101365.98
2018-01-12T01:17:32.499Z,101361.03
2018-01-12T01:18:34.973Z,101364.75
2018-01-12T01:19:37.443Z,101362.16
2018-01-12T01:20:39.898Z,101367.09
2018-01-12T01:21:42.358Z,101366.28
2018-01-12T01:22:44.814Z,101368.06
2018-01-12T01:23:47.288Z,101366.58
2018-01-12T01:24:49.741Z,101361.09
2018-01-12T01:25:52.206Z,101368.52
2018-01-12T01:26:54.680Z,101372.64
2018-01-12T01:27:57.138Z,101369.48
2018-01-12T01:28:59.594Z,101369.23
2018-01-12T01:30:02.068Z,101370.86
2018-01-12T01:31:04.523Z,101367.70
2018-01-12T01:32:06.990Z,101374.73
2018-01-12T01:33:09.454Z,101375.70
2018-01-12T01:34:11.921Z,101368.53
2018-01-12T01:35:14.399Z,101376.94
2018-01-12T01:36:16.868Z,101375.56
2018-01-12T01:37:19.336Z,101378.47
2018-01-12T01:38:21.817Z,101379.43
2018-01-12T01:39:24.296Z,101379.98
2018-01-12T01:40:26.755Z,101376.98
2018-01-12T01:41:29.228Z,101392.52
2018-01-12T01:42:31.689Z,101383.45
2018-01-12T01:43:34.164Z,101390.73
2018-01-12T01:44:36.628Z,101387.73
2018-01-12T01:45:39.097Z,101387.31
2018-01-12T01:46:41.554Z,101397.91
2018-01-12T01:47:44.014Z,101398.06
2018-01-12T01:48:46.474Z,101399.44
2018-01-12T01:49:48.938Z,101394.09
2018-01-12T01:50:51.398Z,101393.68
2018-01-12T01:51:53.884Z,101396.98
2018-01-12T01:52:56.342Z,101398.36
2018-01-12T01:53:58.811Z,101397.14
2018-01-12T01:55:01.266Z,101399.48
2018-01-12T01:56:03.740Z,101398.25
2018-01-12T01:57:06.207Z,101398.66
2018-01-12T01:58:09.334Z,101403.34
2018-01-12T01:59:11.808Z,101405.28
2018-01-12T02:00:14.266Z,101403.09
2018-01-12T02:01:16.744Z,101410.37
2018-01-12T02:02:19.244Z,101406.80
2018-01-12T02:03:21.698Z,101401.05
2018-01-12T02:04:24.168Z,101409.30
2018-01-12T02:05:26.622Z,101401.20
2018-01-12T02:06:29.096Z,101404.36
2018-01-12T02:07:31.568Z,101406.30
2018-01-12T02:08:34.031Z,101407.26
2018-01-12T02:09:36.494Z,101411.94
2018-01-12T02:10:38.968Z,101413.72
2018-01-12T02:11:41.426Z,101414.69
2018-01-12T02:12:43.901Z,101415.66
2018-01-12T02:13:46.374Z,101415.25
2018-01-12T02:14:48.830Z,101412.21
2018-01-12T02:15:51.306Z,101413.73
2018-01-12T02:16:53.792Z,101422.80
2018-01-12T02:17:56.260Z,101413.33
2018-01-12T02:18:58.736Z,101419.95
2018-01-12T02:20:01.194Z,101418.42
2018-01-12T02:21:03.664Z,101418.01
2018-01-12T02:22:06.191Z,101422.13
2018-01-12T02:23:08.646Z,101421.47
2018-01-12T02:24:11.126Z,101422.59
2018-01-12T02:25:13.600Z,101423.30
2018-01-12T02:26:16.060Z,101421.25
2018-01-12T02:27:18.526Z,101425.53
2018-01-12T02:28:21.001Z,101432.30
2018-01-12T02:29:23.455Z,101425.31
2018-01-12T02:30:25.924Z,101427.40
2018-01-12T02:31:28.398Z,101430.70
2018-01-12T02:32:30.858Z,101431.94
2018-01-12T02:33:33.318Z,101436.63
2018-01-12T02:34:35.784Z,101434.17
2018-01-12T02:35:38.256Z,101436.52
2018-01-12T02:36:40.748Z,101435.84
2018-01-12T02:37:43.214Z,101440.12
2018-01-12T02:38:45.696Z,101437.67
2018-01-12T02:39:48.169Z,101438.23
2018-01-12T02:40:50.648Z,101439.75
2018-01-12T02:41:53.124Z,101436.34
2018-01-12T02:42:55.586Z,101437.16
2018-01-12T02:43:58.052Z,101437.45
2018-01-12T02:45:00.501Z,101438.02
2018-01-12T02:46:02.955Z,101438.02
2018-01-12T02:47:05.414Z,101438.98
2018-01-12T02:48:07.897Z,101434.45
2018-01-12T02:49:10.367Z,101439.95
2018-01-12T02:50:12.840Z,101441.32
2018-01-12T02:51:15.301Z,101447.63
2018-01-12T02:52:17.754Z,101443.36
2018-01-12T02:53:20.209Z,101439.50
2018-01-12T02:54:22.680Z,101439.91
2018-01-12T02:55:25.139Z,101444.84
2018-01-12T02:56:27.616Z,101445.51
2018-01-12T02:57:30.071Z,101445.51
2018-01-12T02:58:32.548Z,101445.10
2018-01-12T02:59:35.006Z,101449.48
2018-01-12T03:00:37.476Z,101443.84
2018-01-12T03:01:39.948Z,101441.09
2018-01-12T03:02:42.411Z,101449.18
2018-01-12T03:03:44.869Z,101446.02
2018-01-12T03:04:47.322Z,101437.93
2018-01-12T03:05:49.778Z,101443.27
2018-01-12T03:06:52.234Z,101446.28
2018-01-12T03:07:54.694Z,101444.76
2018-01-12T03:08:57.172Z,101444.61
2018-01-12T03:09:59.647Z,101444.20
2018-01-12T03:11:02.124Z,101451.07
2018-01-12T03:12:04.592Z,101448.58
2018-01-12T03:13:07.045Z,101453.11
2018-01-12T03:14:09.517Z,101452.14
2018-01-12T03:15:11.994Z,101447.61
2018-01-12T03:16:14.450Z,101449.80
2018-01-12T03:17:16.920Z,101452.70
2018-01-12T03:18:19.394Z,101446.23
2018-01-12T03:19:21.864Z,101450.92
2018-01-12T03:20:24.349Z,101452.03
2018-01-12T03:21:26.814Z,101450.66
2018-01-12T03:22:29.278Z,101445.31
2018-01-12T03:23:31.734Z,101446.28
2018-01-12T03:24:34.210Z,101449.18
2018-01-12T03:25:36.684Z,101444.39
2018-01-12T03:26:39.340Z,101444.95
2018-01-12T03:27:41.816Z,101448.25
2018-01-12T03:28:44.292Z,101449.78
2018-01-12T03:29:46.750Z,101454.61
2018-01-12T03:30:49.226Z,101453.39
2018-01-12T03:31:51.704Z,101459.44
2018-01-12T03:32:54.176Z,101460.81
2018-01-12T03:33:56.650Z,101466.31
2018-01-12T03:34:59.106Z,101464.94
2018-01-12T03:36:01.571Z,101463.15
2018-01-12T03:37:04.044Z,101468.09
2018-01-12T03:38:06.512Z,101463.81
2018-01-12T03:39:08.965Z,101464.23
2018-01-12T03:40:11.507Z,101471.66
2018-01-12T03:41:13.984Z,101469.31
2018-01-12T03:42:16.461Z,101467.13
2018-01-12T03:43:18.918Z,101464.52
2018-01-12T03:44:21.374Z,101467.13
2018-01-12T03:45:23.828Z,101462.19
2018-01-12T03:46:26.285Z,101462.34
2018-01-12T03:47:28.746Z,101454.24
2018-01-12T03:48:31.215Z,101460.27
2018-01-12T03:49:33.675Z,101460.27
2018-01-12T03:50:36.134Z,101466.47
2018-01-12T03:51:38.610Z,101463.46
2018-01-12T03:52:41.067Z,101466.36
2018-01-12T03:53:43.540Z,101467.29
2018-01-12T03:54:45.993Z,101467.84
2018-01-12T03:55:48.453Z,101464.69
2018-01-12T03:56:50.923Z,101466.22
2018-01-12T03:57:53.402Z,101463.62
2018-01-12T03:58:55.884Z,101472.27
2018-01-12T03:59:58.342Z,101462.80
2018-01-12T04:01:00.804Z,101460.05
2018-01-12T04:02:03.276Z,101463.36
2018-01-12T04:03:05.744Z,101468.03
2018-01-12T04:04:08.197Z,101464.63
2018-01-12T04:05:10.654Z,101465.59
2018-01-12T04:06:13.128Z,101467.52
2018-01-12T04:07:15.614Z,101473.16
2018-01-12T04:08:18.074Z,101473.45
2018-01-12T04:09:20.532Z,101467.55
2018-01-12T04:10:23.009Z,101474.98
2018-01-12T04:11:25.466Z,101479.25
2018-01-12T04:12:27.918Z,101476.09
2018-01-12T04:13:30.391Z,101472.69
2018-01-12T04:14:32.860Z,101471.05
2018-01-12T04:15:35.332Z,101481.63
2018-01-12T04:16:37.936Z,101480.25
2018-01-12T04:17:40.394Z,101480.41
2018-01-12T04:18:42.873Z,101482.89
2018-01-12T04:19:45.344Z,101476.58
2018-01-12T04:20:47.799Z,101476.58
2018-01-12T04:21:50.254Z,101473.95
2018-01-12T04:22:52.714Z,101474.36
2018-01-12T04:23:55.183Z,101477.66
2018-01-12T04:24:57.633Z,101480.00
2018-01-12T04:26:00.104Z,101474.66
2018-01-12T04:27:02.571Z,101480.56
2018-01-12T04:28:05.030Z,101481.53
2018-01-12T04:29:07.504Z,101477.55
2018-01-12T04:30:09.962Z,101484.68
2018-01-12T04:31:12.432Z,101487.84
2018-01-12T04:32:14.908Z,101484.53
2018-01-12T04:33:17.370Z,101480.70
2018-01-12T04:34:19.843Z,101483.86
2018-01-12T04:35:22.297Z,101485.08
2018-01-12T04:36:24.768Z,101485.34
2018-01-12T04:37:27.226Z,101487.68
2018-01-12T04:38:29.701Z,101482.59
2018-01-12T04:39:32.157Z,101484.94
2018-01-12T04:40:34.623Z,101487.94
2018-01-12T04:41:37.100Z,101485.34
2018-01-12T04:42:39.557Z,101483.00
2018-01-12T04:43:42.014Z,101482.04
2018-01-12T04:44:44.484Z,101484.78
2018-01-12T04:45:46.958Z,101484.37
2018-01-12T04:46:49.421Z,101487.13
2018-01-12T04:47:51.888Z,101478.88
2018-01-12T04:48:54.368Z,101479.59
2018-01-12T04:49:56.848Z,101479.03
2018-01-12T04:50:59.305Z,101483.30
2018-01-12T04:52:01.765Z,101481.52
2018-01-12T04:53:04.234Z,101478.77
2018-01-12T04:54:06.704Z,101482.48
2018-01-12T04:55:09.166Z,101475.33
2018-01-12T04:56:11.626Z,101482.19
2018-01-12T04:57:14.083Z,101478.37
2018-01-12T04:58:16.547Z,101480.70
2018-01-12T04:59:19.021Z,101480.59
2018-01-12T05:00:21.481Z,101486.50
2018-01-12T05:01:23.952Z,101477.59
2018-01-12T05:02:26.426Z,101487.20
2018-01-12T05:03:28.901Z,101482.01
2018-01-12T05:04:31.358Z,101480.38
2018-01-12T05:05:33.814Z,101477.78
2018-01-12T05:06:36.291Z,101475.73
2018-01-12T05:07:38.760Z,101481.63
2018-01-12T05:08:41.232Z,101482.19
2018-01-12T05:09:43.707Z,101474.92
2018-01-12T05:10:46.176Z,101471.36
2018-01-12T05:11:48.653Z,101477.81
2018-01-12T05:12:51.105Z,101472.06
2018-01-12T05:13:53.576Z,101468.35
2018-01-12T05:14:56.035Z,101472.62
2018-01-12T05:15:58.490Z,101471.66
2018-01-12T05:17:00.947Z,101471.66
2018-01-12T05:18:03.428Z,101474.80
2018-01-12T05:19:05.907Z,101468.35
2018-01-12T05:20:08.363Z,101466.94
2018-01-12T05:21:10.836Z,101473.25
2018-01-12T05:22:13.308Z,101473.66
2018-01-12T05:23:15.782Z,101472.69
2018-01-12T05:24:18.378Z,101481.34
2018-01-12T05:25:20.852Z,101479.97
2018-01-12T05:26:23.336Z,101480.78
2018-01-12T05:27:25.806Z,101480.38
2018-01-12T05:28:28.288Z,101481.34
2018-01-12T05:29:30.768Z,101485.87
2018-01-12T05:30:33.224Z,101483.94
2018-01-12T05:31:35.677Z,101484.09
2018-01-12T05:32:38.160Z,101485.05
2018-01-12T05:33:40.653Z,101484.49
2018-01-12T05:34:43.090Z,101489.98
2018-01-12T05:35:45.550Z,101492.29
2018-01-12T05:36:48.024Z,101490.77
2018-01-12T05:37:50.654Z,101491.59
2018-01-12T05:38:53.124Z,101492.95
2018-01-12T05:39:55.585Z,101493.37
2018-01-12T05:40:58.069Z,101490.21
2018-01-12T05:42:00.540Z,101493.77
2018-01-12T05:43:02.998Z,101498.19
2018-01-12T05:44:05.472Z,101490.66
2018-01-12T05:45:07.934Z,101490.80
2018-01-12T05:46:10.404Z,101490.95
2018-01-12T05:47:12.884Z,101496.59
2018-01-12T05:48:15.345Z,101502.34
2018-01-12T05:49:17.820Z,101495.74
2018-01-12T05:50:20.293Z,101501.64
2018-01-12T05:51:22.762Z,101504.13
2018-01-12T05:52:25.218Z,101499.59
2018-01-12T05:53:27.692Z,101502.91
2018-01-12T05:54:30.167Z,101507.98
2018-01-12T05:55:32.640Z,101497.56
2018-01-12T05:56:35.117Z,101502.64
2018-01-12T05:57:37.582Z,101502.64
2018-01-12T05:58:40.042Z,101501.83
2018-01-12T05:59:42.497Z,101502.53
2018-01-12T06:00:57.055Z,101503.91
2018-01-12T06:02:11.344Z,101503.23
2018-01-12T06:03:25.660Z,101503.23
2018-01-12T06:04:39.986Z,101496.22
2018-01-12T06:05:54.302Z,101501.97
2018-01-12T06:06:56.830Z,101502.49
2018-01-12T06:07:59.303Z,101500.01
2018-01-12T06:09:01.777Z,101505.06
2018-01-12T06:10:04.252Z,101505.06
2018-01-12T06:11:06.719Z,101505.88
2018-01-12T06:12:09.196Z,101507.66
2018-01-12T06:13:12.108Z,101505.61
2018-01-12T06:14:14.621Z,101507.55
2018-01-12T06:15:17.100Z,101510.44
2018-01-12T06:16:19.574Z,101508.55
2018-01-12T06:17:22.046Z,101516.38
2018-01-12T06:18:24.528Z,101515.97
2018-01-12T06:19:27.008Z,101514.45
2018-01-12T06:20:29.474Z,101515.97
2018-01-12T06:21:31.946Z,101513.78
2018-01-12T06:22:34.423Z,101516.70
2018-01-12T06:23:36.908Z,101511.22
2018-01-12T06:24:39.379Z,101512.63
2018-01-12T06:25:41.850Z,101517.19
2018-01-12T06:26:44.309Z,101515.84
2018-01-12T06:27:46.794Z,101517.52
2018-01-12T06:28:49.262Z,101519.33
2018-01-12T06:29:51.745Z,101521.14
2018-01-12T06:30:54.206Z,101515.66
2018-01-12T06:31:56.678Z,101523.78
2018-01-12T06:32:59.155Z,101528.89
2018-01-12T06:34:01.653Z,101525.36
2018-01-12T06:35:04.136Z,101528.58
2018-01-12T06:36:06.649Z,101526.80
2018-01-12T06:37:09.128Z,101528.34
2018-01-12T06:38:11.595Z,101526.48
2018-01-12T06:39:14.076Z,101532.41
2018-01-12T06:40:16.546Z,101539.15
2018-01-12T06:41:19.015Z,101540.43
2018-01-12T06:42:21.488Z,101543.76
2018-01-12T06:43:23.954Z,101537.36
2018-01-12T06:44:26.454Z,101543.11
2018-01-12T06:45:28.914Z,101543.28
2018-01-12T06:46:31.391Z,101543.30
2018-01-12T06:47:33.869Z,101545.52
2018-01-12T06:48:36.399Z,101545.52
2018-01-12T06:49:38.893Z,101546.77
2018-01-12T06:50:41.379Z,101547.32
2018-01-12T06:51:43.870Z,101551.05
2018-01-12T06:52:46.354Z,101555.02
2018-01-12T06:53:48.832Z,101555.84
2018-01-12T06:54:51.327Z,101556.38
2018-01-12T06:55:53.827Z,101560.75
2018-01-12T06:56:56.311Z,101550.72
2018-01-12T06:57:58.792Z,101554.95
2018-01-12T06:59:01.258Z,101555.33
2018-01-12T07:00:03.740Z,101558.34
2018-01-12T07:01:06.206Z,101562.05
2018-01-12T07:02:08.686Z,101559.58
2018-01-12T07:03:11.150Z,101560.89
2018-01-12T07:04:13.642Z,101562.45
2018-01-12T07:05:16.218Z,101565.34
2018-01-12T07:06:18.683Z,101565.89
2018-01-12T07:07:21.174Z,101572.97
2018-01-12T07:08:23.642Z,101573.06
2018-01-12T07:09:26.106Z,101572.32
2018-01-12T07:10:28.570Z,101565.47
2018-01-12T07:11:31.029Z,101563.89
2018-01-12T07:12:33.494Z,101567.08
2018-01-12T07:13:35.954Z,101571.23
2018-01-12T07:14:38.526Z,101573.41
2018-01-12T07:15:41.004Z,101576.48
2018-01-12T07:16:43.484Z,101568.38
2018-01-12T07:17:45.975Z,101572.67
2018-01-12T07:18:48.442Z,101575.59
2018-01-12T07:19:50.925Z,101571.39
2018-01-12T07:21:05.299Z,101569.16
2018-01-12T07:22:19.430Z,101571.75
2018-01-12T07:23:33.664Z,101576.50
2018-01-12T07:24:36.127Z,101573.22
2018-01-12T07:25:38.628Z,101571.02
2018-01-12T07:26:41.104Z,101572.14
2018-01-12T07:27:43.649Z,101576.97
2018-01-12T07:28:46.122Z,101577.96
2018-01-12T07:29:48.638Z,101573.80
2018-01-12T07:30:51.102Z,101578.67
2018-01-12T07:31:53.574Z,101576.30
2018-01-12T07:32:56.056Z,101581.23
2018-01-12T07:33:58.553Z,101576.53
2018-01-12T07:35:01.022Z,101578.98
2018-01-12T07:36:03.491Z,101576.79
2018-01-12T07:37:05.978Z,101578.73
2018-01-12T07:38:08.464Z,101578.63
2018-01-12T07:39:10.926Z,101583.20
2018-01-12T07:40:13.404Z,101581.98
2018-01-12T07:41:15.902Z,101584.83
2018-01-12T07:42:18.385Z,101584.40
2018-01-12T07:43:20.854Z,101582.66
2018-01-12T07:44:23.318Z,101588.66
2018-01-12T07:45:25.797Z,101584.94
2018-01-12T07:46:28.266Z,101585.86
2018-01-12T07:47:30.735Z,101588.16
2018-01-12T07:48:33.217Z,101588.66
2018-01-12T07:49:36.184Z,101587.06
2018-01-12T07:50:38.973Z,101587.27
2018-01-12T07:51:41.460Z,101588.89
2018-01-12T07:52:49.406Z,101591.14
2018-01-12T07:53:51.887Z,101586.50
2018-01-12T07:54:54.373Z,101584.88
2018-01-12T07:55:56.841Z,101587.44
2018-01-12T07:56:59.305Z,101589.84
2018-01-12T07:58:01.781Z,101588.63
2018-01-12T07:59:04.256Z,101587.59
2018-01-12T08:00:06.727Z,101587.94
2018-01-12T08:01:14.834Z,101592.37
2018-01-12T08:02:22.979Z,101594.25
2018-01-12T08:03:25.452Z,101594.89
2018-01-12T08:04:27.924Z,101599.66
2018-01-12T08:05:30.387Z,101600.16
2018-01-12T08:06:32.852Z,101598.47
2018-01-12T08:07:35.373Z,101604.73
2018-01-12T08:08:37.852Z,101604.73
2018-01-12T08:09:40.321Z,101603.77
2018-01-12T08:10:42.816Z,101607.80
2018-01-12T08:11:45.287Z,101608.12
2018-01-12T08:12:47.763Z,101607.77
2018-01-12T08:13:50.239Z,101610.63
2018-01-12T08:14:52.709Z,101615.89
2018-01-12T08:15:55.166Z,101610.78
2018-01-12T08:16:57.688Z,101610.75
2018-01-12T08:18:00.150Z,101614.77
2018-01-12T08:19:02.614Z,101621.35
2018-01-12T08:20:05.092Z,101616.02
2018-01-12T08:21:07.572Z,101623.27
2018-01-12T08:22:10.030Z,101618.19
2018-01-12T08:23:12.503Z,101623.23
2018-01-12T08:24:15.000Z,101624.70
2018-01-12T08:25:17.466Z,101626.34
2018-01-12T08:26:19.939Z,101627.06
2018-01-12T08:27:22.422Z,101627.47
2018-01-12T08:28:24.900Z,101627.38
2018-01-12T08:29:27.407Z,101632.95
2018-01-12T08:30:29.866Z,101624.48
2018-01-12T08:31:32.347Z,101631.42
2018-01-12T08:32:34.821Z,101629.76
2018-01-12T08:33:37.290Z,101633.42
2018-01-12T08:34:39.768Z,101629.70
2018-01-12T08:35:42.229Z,101635.75
2018-01-12T08:36:44.690Z,101638.91
2018-01-12T08:37:47.173Z,101637.81
2018-01-12T08:38:49.648Z,101645.38
2018-01-12T08:39:52.112Z,101641.42
2018-01-12T08:40:54.575Z,101643.46
2018-01-12T08:41:57.054Z,101639.44
2018-01-12T08:42:59.520Z,101644.96
2018-01-12T08:44:01.988Z,101646.47
2018-01-12T08:45:04.469Z,101644.91
2018-01-12T08:46:06.932Z,101643.68
2018-01-12T08:47:09.390Z,101649.83
2018-01-12T08:48:11.857Z,101646.56
2018-01-12T08:49:14.314Z,101648.98
2018-01-12T08:50:16.803Z,101645.50
2018-01-12T08:51:19.268Z,101650.30
2018-01-12T08:52:21.729Z,101645.88
2018-01-12T08:53:24.221Z,101659.86
2018-01-12T08:54:26.681Z,101648.66
2018-01-12T08:55:29.180Z,101652.02
2018-01-12T08:56:31.641Z,101660.80
2018-01-12T08:57:34.097Z,101657.94
2018-01-12T08:58:36.561Z,101656.23
2018-01-12T08:59:39.014Z,101652.91
2018-01-12T09:00:41.488Z,101658.50
2018-01-12T09:01:43.954Z,101655.80
2018-01-12T09:02:46.423Z,101659.64
2018-01-12T09:03:48.924Z,101660.52
2018-01-12T09:04:51.395Z,101659.36
2018-01-12T09:05:53.864Z,101666.48
2018-01-12T09:06:56.322Z,101661.88
2018-01-12T09:07:58.777Z,101667.48
2018-01-12T09:09:01.252Z,101661.09
2018-01-12T09:10:03.718Z,101666.89
2018-01-12T09:11:06.196Z,101665.47
2018-01-12T09:12:08.660Z,101667.13
2018-01-12T09:13:22.904Z,101666.25
2018-01-12T09:14:37.230Z,101666.18
2018-01-12T09:15:39.689Z,101668.06
2018-01-12T09:16:51.218Z,101669.76
2018-01-12T09:17:53.685Z,101664.14
2018-01-12T09:19:08.018Z,101668.76
2018-01-12T09:20:17.273Z,101666.88
2018-01-12T09:21:25.110Z,101665.00
2018-01-12T09:22:28.667Z,101665.41
2018-01-12T09:23:31.163Z,101671.88
2018-01-12T09:24:33.690Z,101673.64
2018-01-12T09:25:36.826Z,101674.14
2018-01-12T09:26:39.278Z,101676.55
2018-01-12T09:27:41.738Z,101677.56
2018-01-12T09:28:44.218Z,101677.47
2018-01-12T09:29:46.692Z,101676.93
2018-01-12T09:30:49.146Z,101676.70
2018-01-12T09:31:51.619Z,101678.23
2018-01-12T09:32:54.180Z,101674.31
2018-01-12T09:33:56.701Z,101682.09
2018-01-12T09:34:59.995Z,101683.90
2018-01-12T09:36:02.478Z,101686.50
2018-01-12T09:37:04.937Z,101683.17
2018-01-12T09:38:19.242Z,101683.02
2018-01-12T09:39:47.541Z,101686.98
2018-01-12T09:40:50.006Z,101687.61
2018-01-12T09:41:52.525Z,101685.61
2018-01-12T09:42:54.991Z,101688.02
2018-01-12T09:43:57.474Z,101686.71
2018-01-12T09:44:59.946Z,101692.95
2018-01-12T09:46:02.416Z,101690.67
2018-01-12T09:47:16.818Z,101687.03
2018-01-12T09:48:38.009Z,101688.88
2018-01-12T09:49:47.123Z,101693.31
2018-01-12T09:50:49.591Z,101692.15
2018-01-12T09:51:52.093Z,101695.25
2018-01-12T09:52:54.551Z,101697.57
2018-01-12T09:53:57.036Z,101698.51
2018-01-12T09:54:59.514Z,101697.38
2018-01-12T09:56:01.987Z,101698.63
2018-01-12T09:57:04.472Z,101692.09
2018-01-12T09:58:06.981Z,101696.42
2018-01-12T09:59:09.480Z,101691.91
2018-01-12T10:01:43.570Z,101697.27
2018-01-12T10:02:46.047Z,101695.42
2018-01-12T10:03:48.531Z,101694.93
2018-01-12T10:04:51.010Z,101695.78
2018-01-12T10:05:53.467Z,101692.23
2018-01-12T10:06:55.941Z,101697.67
2018-01-12T10:08:16.961Z,101698.86
2018-01-12T10:09:25.243Z,101691.95
2018-01-12T10:10:27.735Z,101694.16
2018-01-12T10:11:30.221Z,101695.94
2018-01-12T10:12:32.728Z,101696.66
2018-01-12T10:13:35.194Z,101697.45
2018-01-12T10:14:37.658Z,101695.63
2018-01-12T10:15:40.145Z,101693.37
2018-01-12T10:16:42.712Z,101702.50
2018-01-12T10:17:45.177Z,101698.85
2018-01-12T10:18:53.468Z,101698.00
2018-01-12T10:21:40.712Z,101698.93
2018-01-12T10:22:43.187Z,101697.63
2018-01-12T10:23:45.693Z,101696.31
2018-01-12T10:24:48.157Z,101694.78
2018-01-12T10:25:50.642Z,101698.11
2018-01-12T10:26:53.165Z,101697.36
2018-01-12T10:27:55.639Z,101697.24
2018-01-12T10:29:07.091Z,101697.75
2018-01-12T10:31:51.632Z,101700.80
2018-01-12T10:33:00.911Z,101698.41
2018-01-12T10:34:08.353Z,101695.80
2018-01-12T10:35:19.467Z,101703.73
2018-01-12T10:36:21.926Z,101693.32
2018-01-12T10:37:24.390Z,101696.95
2018-01-12T10:38:26.869Z,101699.74
2018-01-12T10:39:29.348Z,101697.58
2018-01-12T10:42:19.374Z,101697.24
2018-01-12T10:43:21.838Z,101701.56
2018-01-12T10:44:24.301Z,101692.28
2018-01-12T10:45:26.777Z,101692.08
2018-01-12T10:46:41.037Z,101690.09
2018-01-12T10:47:53.219Z,101693.42
2018-01-12T10:48:56.612Z,101691.27
2018-01-12T10:51:37.085Z,101691.52
2018-01-12T10:52:39.564Z,101693.34
2018-01-12T10:53:42.054Z,101694.56
2018-01-12T10:54:44.515Z,101689.67
2018-01-12T10:55:46.996Z,101687.58
2018-01-12T10:56:49.471Z,101691.21
2018-01-12T10:57:51.955Z,101686.92
2018-01-12T10:58:54.482Z,101686.95
2018-01-12T10:59:57.028Z,101693.19
2018-01-12T11:00:59.590Z,101683.99
2018-01-12T11:02:02.085Z,101687.47
2018-01-12T11:03:04.550Z,101686.72
2018-01-12T11:04:07.048Z,101687.59
2018-01-12T11:05:09.514Z,101688.28
2018-01-12T11:06:11.995Z,101686.55
2018-01-12T11:07:14.470Z,101694.06
2018-01-12T11:08:16.948Z,101689.11
2018-01-12T11:09:19.458Z,101686.81
2018-01-12T11:10:21.937Z,101688.41
2018-01-12T11:11:24.680Z,101694.10
2018-01-12T11:12:27.172Z,101689.77
2018-01-12T11:13:29.630Z,101690.80
2018-01-12T11:14:32.114Z,101696.52
2018-01-12T11:15:34.611Z,101686.92
2018-01-12T11:16:37.096Z,101689.45
2018-01-12T11:17:39.561Z,101684.40
2018-01-12T11:18:42.044Z,101688.02
2018-01-12T11:19:44.548Z,101688.23
2018-01-12T11:20:47.028Z,101686.75
2018-01-12T11:21:49.503Z,101683.64
2018-01-12T11:22:51.985Z,101680.91
2018-01-12T11:23:54.454Z,101685.35
2018-01-12T11:24:56.960Z,101682.55
2018-01-12T11:25:59.422Z,101677.55
2018-01-12T11:27:02.020Z,101677.45
2018-01-12T11:28:04.496Z,101681.17
2018-01-12T11:29:06.958Z,101678.44
2018-01-12T11:30:09.531Z,101678.89
2018-01-12T11:31:12.014Z,101678.33
2018-01-12T11:32:14.482Z,101673.95
2018-01-12T11:33:16.960Z,101674.81
2018-01-12T11:34:19.426Z,101676.80
2018-01-12T11:35:21.945Z,101672.41
2018-01-12T11:36:24.429Z,101670.73
2018-01-12T11:37:26.935Z,101673.64
2018-01-12T11:38:29.432Z,101672.69
2018-01-12T11:39:31.916Z,101676.56
2018-01-12T11:40:34.418Z,101667.91
2018-01-12T11:41:36.896Z,101669.59
2018-01-12T11:42:39.372Z,101677.76
2018-01-12T11:43:41.838Z,101671.99
2018-01-12T11:44:44.302Z,101673.52
2018-01-12T11:45:46.797Z,101671.99
2018-01-12T11:46:49.302Z,101677.34
2018-01-12T11:47:51.779Z,101676.33
2018-01-12T11:48:54.256Z,101677.14
2018-01-12T11:49:56.740Z,101671.33
2018-01-12T11:50:59.231Z,101675.34
2018-01-12T11:52:01.723Z,101677.69
2018-01-12T11:53:04.213Z,101668.15
2018-01-12T11:54:06.681Z,101673.41
2018-01-12T11:55:09.168Z,101674.37
2018-01-12T11:56:11.650Z,101678.50
2018-01-12T11:57:14.150Z,101674.61
2018-01-12T11:58:16.659Z,101668.94
2018-01-12T11:59:19.107Z,101674.25
2018-01-12T12:00:21.589Z,101668.02
2018-01-12T12:01:24.074Z,101669.45
2018-01-12T12:02:26.544Z,101664.58
2018-01-12T12:03:29.036Z,101669.17
2018-01-12T12:04:31.510Z,101671.56
2018-01-12T12:05:33.990Z,101667.13
2018-01-12T12:06:36.507Z,101668.89